sensor_id;sensor_type;location;lat;lon;timestamp;temperature;humidity
57108;DHT22;42987;52.916;6.542;2022-09-30T00:01:44;8.30;99.90
57108;DHT22;42987;52.916;6.542;2022-09-30T00:04:24;8.20;99.90
57108;DHT22;42987;52.916;6.542;2022-09-30T00:06:50;8.10;99.90
57108;DHT22;42987;52.916;6.542;2022-09-30T00:09:17;8.10;99.90
57108;DHT22;42987;52.916;6.542;2022-09-30T00:11:43;8.00;99.90
57108;DHT22;42987;52.916;6.542;2022-09-30T00:14:15;8.00;99.90
57108;DHT22;42987;52.916;6.542;2022-09-30T00:16:42;8.00;99.90
57108;DHT22;42987;52.916;6.542;2022-09-30T00:19:08;8.00;99.90
57108;DHT22;42987;52.916;6.542;2022-09-30T00:21:34;8.00;99.90
57108;DHT22;42987;52.916;6.542;2022-09-30T00:24:00;8.00;99.90
57108;DHT22;42987;52.916;6.542;2022-09-30T00:26:26;8.00;99.90
57108;DHT22;42987;52.916;6.542;2022-09-30T00:28:54;8.10;99.90
57108;DHT22;42987;52.916;6.542;2022-09-30T00:31:22;8.10;99.90
57108;DHT22;42987;52.916;6.542;2022-09-30T00:33:48;8.10;99.90
57108;DHT22;42987;52.916;6.542;2022-09-30T00:36:36;8.10;99.90
57108;DHT22;42987;52.916;6.542;2022-09-30T00:39:04;8.10;99.90
57108;DHT22;42987;52.916;6.542;2022-09-30T00:41:30;8.10;99.90
57108;DHT22;42987;52.916;6.542;2022-09-30T00:43:56;8.10;99.90
57108;DHT22;42987;52.916;6.542;2022-09-30T00:46:35;8.10;99.90
57108;DHT22;42987;52.916;6.542;2022-09-30T00:49:07;8.10;99.90
57108;DHT22;42987;52.916;6.542;2022-09-30T00:51:39;8.00;99.90
57108;DHT22;42987;52.916;6.542;2022-09-30T00:54:11;8.00;99.90
57108;DHT22;42987;52.916;6.542;2022-09-30T00:56:41;7.90;99.90
57108;DHT22;42987;52.916;6.542;2022-09-30T00:59:29;8.00;99.90
57108;DHT22;42987;52.916;6.542;2022-09-30T01:02:00;8.00;99.90
57108;DHT22;42987;52.916;6.542;2022-09-30T01:04:29;8.00;99.90
57108;DHT22;42987;52.916;6.542;2022-09-30T01:06:59;8.00;99.90
57108;DHT22;42987;52.916;6.542;2022-09-30T01:09:26;8.00;99.90
57108;DHT22;42987;52.916;6.542;2022-09-30T01:11:52;7.90;99.90
57108;DHT22;42987;52.916;6.542;2022-09-30T01:14:22;7.90;99.90
57108;DHT22;42987;52.916;6.542;2022-09-30T01:17:08;7.90;99.90
57108;DHT22;42987;52.916;6.542;2022-09-30T01:31:30;7.90;99.90
57108;DHT22;42987;52.916;6.542;2022-09-30T01:39:33;7.80;99.90
57108;DHT22;42987;52.916;6.542;2022-09-30T01:42:27;7.70;99.90
57108;DHT22;42987;52.916;6.542;2022-09-30T01:45:17;7.60;99.90
57108;DHT22;42987;52.916;6.542;2022-09-30T01:50:49;7.50;99.90
57108;DHT22;42987;52.916;6.542;2022-09-30T01:53:39;7.50;99.90
57108;DHT22;42987;52.916;6.542;2022-09-30T01:56:43;7.50;99.90
57108;DHT22;42987;52.916;6.542;2022-09-30T01:59:03;7.50;99.90
57108;DHT22;42987;52.916;6.542;2022-09-30T02:01:54;7.50;99.90
57108;DHT22;42987;52.916;6.542;2022-09-30T02:04:28;7.50;99.90
57108;DHT22;42987;52.916;6.542;2022-09-30T02:07:03;7.50;99.90
57108;DHT22;42987;52.916;6.542;2022-09-30T02:09:41;7.50;99.90
57108;DHT22;42987;52.916;6.542;2022-09-30T02:12:15;7.50;99.90
57108;DHT22;42987;52.916;6.542;2022-09-30T02:14:48;7.40;99.90
57108;DHT22;42987;52.916;6.542;2022-09-30T02:17:28;7.30;99.90
57108;DHT22;42987;52.916;6.542;2022-09-30T02:20:13;7.30;99.90
57108;DHT22;42987;52.916;6.542;2022-09-30T02:23:01;7.20;99.90
57108;DHT22;42987;52.916;6.542;2022-09-30T02:25:50;7.20;99.90
57108;DHT22;42987;52.916;6.542;2022-09-30T02:28:23;7.20;99.90
57108;DHT22;42987;52.916;6.542;2022-09-30T02:30:55;7.20;99.90
57108;DHT22;42987;52.916;6.542;2022-09-30T02:33:34;7.10;99.90
57108;DHT22;42987;52.916;6.542;2022-09-30T02:36:08;7.10;99.90
57108;DHT22;42987;52.916;6.542;2022-09-30T02:38:39;7.10;99.90
57108;DHT22;42987;52.916;6.542;2022-09-30T02:41:16;7.10;99.90
57108;DHT22;42987;52.916;6.542;2022-09-30T02:43:44;7.10;99.90
57108;DHT22;42987;52.916;6.542;2022-09-30T02:49:05;7.00;99.90
57108;DHT22;42987;52.916;6.542;2022-09-30T02:54:50;6.90;99.90
57108;DHT22;42987;52.916;6.542;2022-09-30T03:00:11;6.70;99.90
57108;DHT22;42987;52.916;6.542;2022-09-30T03:02:39;6.60;99.90
57108;DHT22;42987;52.916;6.542;2022-09-30T03:05:05;6.60;99.90
57108;DHT22;42987;52.916;6.542;2022-09-30T03:07:32;6.60;99.90
57108;DHT22;42987;52.916;6.542;2022-09-30T03:09:58;6.60;99.90
57108;DHT22;42987;52.916;6.542;2022-09-30T03:12:38;6.60;99.90
57108;DHT22;42987;52.916;6.542;2022-09-30T03:17:44;6.60;99.90
57108;DHT22;42987;52.916;6.542;2022-09-30T03:20:30;6.60;99.90
57108;DHT22;42987;52.916;6.542;2022-09-30T03:23:31;6.60;99.90
57108;DHT22;42987;52.916;6.542;2022-09-30T03:31:46;6.60;99.90
57108;DHT22;42987;52.916;6.542;2022-09-30T03:37:10;6.50;99.90
57108;DHT22;42987;52.916;6.542;2022-09-30T03:42:29;6.40;99.90
57108;DHT22;42987;52.916;6.542;2022-09-30T03:45:51;6.40;99.90
57108;DHT22;42987;52.916;6.542;2022-09-30T03:48:01;6.40;99.90
57108;DHT22;42987;52.916;6.542;2022-09-30T03:50:29;6.40;99.90
57108;DHT22;42987;52.916;6.542;2022-09-30T03:52:56;6.40;99.90
57108;DHT22;42987;52.916;6.542;2022-09-30T03:55:23;6.40;99.90
57108;DHT22;42987;52.916;6.542;2022-09-30T03:57:48;6.50;99.90
57108;DHT22;42987;52.916;6.542;2022-09-30T04:00:16;6.50;99.90
57108;DHT22;42987;52.916;6.542;2022-09-30T04:02:41;6.50;99.90
57108;DHT22;42987;52.916;6.542;2022-09-30T04:05:07;6.50;99.90
57108;DHT22;42987;52.916;6.542;2022-09-30T04:07:34;6.50;99.90
57108;DHT22;42987;52.916;6.542;2022-09-30T04:10:00;6.50;99.90
57108;DHT22;42987;52.916;6.542;2022-09-30T04:12:26;6.50;99.90
57108;DHT22;42987;52.916;6.542;2022-09-30T04:14:51;6.50;99.90
57108;DHT22;42987;52.916;6.542;2022-09-30T04:17:17;6.40;99.90
57108;DHT22;42987;52.916;6.542;2022-09-30T04:19:43;6.40;99.90
57108;DHT22;42987;52.916;6.542;2022-09-30T04:22:09;6.40;99.90
57108;DHT22;42987;52.916;6.542;2022-09-30T04:24:35;6.30;99.90
57108;DHT22;42987;52.916;6.542;2022-09-30T04:27:02;6.40;99.90
57108;DHT22;42987;52.916;6.542;2022-09-30T04:29:28;6.40;99.90
57108;DHT22;42987;52.916;6.542;2022-09-30T04:31:54;6.40;99.90
57108;DHT22;42987;52.916;6.542;2022-09-30T04:34:19;6.50;99.90
57108;DHT22;42987;52.916;6.542;2022-09-30T04:36:45;6.60;99.90
57108;DHT22;42987;52.916;6.542;2022-09-30T04:39:11;6.50;99.90
57108;DHT22;42987;52.916;6.542;2022-09-30T04:41:36;6.60;99.90
57108;DHT22;42987;52.916;6.542;2022-09-30T04:44:03;6.60;99.90
57108;DHT22;42987;52.916;6.542;2022-09-30T04:46:33;6.70;99.90
57108;DHT22;42987;52.916;6.542;2022-09-30T04:49:05;6.70;99.90
57108;DHT22;42987;52.916;6.542;2022-09-30T04:51:31;6.70;99.90
57108;DHT22;42987;52.916;6.542;2022-09-30T04:53:57;6.70;99.90
57108;DHT22;42987;52.916;6.542;2022-09-30T04:56:23;6.70;99.90
57108;DHT22;42987;52.916;6.542;2022-09-30T04:58:51;6.60;99.90
57108;DHT22;42987;52.916;6.542;2022-09-30T05:01:18;6.70;99.90
57108;DHT22;42987;52.916;6.542;2022-09-30T05:03:44;6.70;99.90
57108;DHT22;42987;52.916;6.542;2022-09-30T05:06:10;6.70;99.90
57108;DHT22;42987;52.916;6.542;2022-09-30T05:08:36;6.60;99.90
57108;DHT22;42987;52.916;6.542;2022-09-30T05:11:05;6.60;99.90
57108;DHT22;42987;52.916;6.542;2022-09-30T05:13:39;6.60;99.90
57108;DHT22;42987;52.916;6.542;2022-09-30T05:16:06;6.50;99.90
57108;DHT22;42987;52.916;6.542;2022-09-30T05:18:33;6.50;99.90
57108;DHT22;42987;52.916;6.542;2022-09-30T05:20:59;6.40;99.90
57108;DHT22;42987;52.916;6.542;2022-09-30T05:23:26;6.40;99.90
57108;DHT22;42987;52.916;6.542;2022-09-30T05:25:52;6.40;99.90
57108;DHT22;42987;52.916;6.542;2022-09-30T05:28:18;6.40;99.90
57108;DHT22;42987;52.916;6.542;2022-09-30T05:30:44;6.40;99.90
57108;DHT22;42987;52.916;6.542;2022-09-30T05:33:12;6.40;99.90
57108;DHT22;42987;52.916;6.542;2022-09-30T05:35:39;6.40;99.90
57108;DHT22;42987;52.916;6.542;2022-09-30T05:38:06;6.40;99.90
57108;DHT22;42987;52.916;6.542;2022-09-30T05:40:32;6.40;99.90
57108;DHT22;42987;52.916;6.542;2022-09-30T05:42:58;6.40;99.90
57108;DHT22;42987;52.916;6.542;2022-09-30T05:45:25;6.30;99.90
57108;DHT22;42987;52.916;6.542;2022-09-30T05:47:55;6.30;99.90
57108;DHT22;42987;52.916;6.542;2022-09-30T05:50:22;6.20;99.90
57108;DHT22;42987;52.916;6.542;2022-09-30T05:52:48;6.20;99.90
57108;DHT22;42987;52.916;6.542;2022-09-30T05:55:19;6.30;99.90
57108;DHT22;42987;52.916;6.542;2022-09-30T05:57:51;6.30;99.90
57108;DHT22;42987;52.916;6.542;2022-09-30T06:00:18;6.30;99.90
57108;DHT22;42987;52.916;6.542;2022-09-30T06:02:44;6.40;99.90
57108;DHT22;42987;52.916;6.542;2022-09-30T06:05:10;6.40;99.90
57108;DHT22;42987;52.916;6.542;2022-09-30T06:07:37;6.50;99.90
57108;DHT22;42987;52.916;6.542;2022-09-30T06:10:04;6.50;99.90
57108;DHT22;42987;52.916;6.542;2022-09-30T06:12:33;6.50;99.90
57108;DHT22;42987;52.916;6.542;2022-09-30T06:14:58;6.50;99.90
57108;DHT22;42987;52.916;6.542;2022-09-30T06:17:24;6.50;99.90
57108;DHT22;42987;52.916;6.542;2022-09-30T06:19:50;6.50;99.90
57108;DHT22;42987;52.916;6.542;2022-09-30T06:22:16;6.50;99.90
57108;DHT22;42987;52.916;6.542;2022-09-30T06:24:43;6.40;99.90
57108;DHT22;42987;52.916;6.542;2022-09-30T06:27:09;6.40;99.90
57108;DHT22;42987;52.916;6.542;2022-09-30T06:29:35;6.40;99.90
57108;DHT22;42987;52.916;6.542;2022-09-30T06:32:01;6.40;99.90
57108;DHT22;42987;52.916;6.542;2022-09-30T06:34:27;6.40;99.90
57108;DHT22;42987;52.916;6.542;2022-09-30T06:36:52;6.50;99.90
57108;DHT22;42987;52.916;6.542;2022-09-30T06:39:18;6.60;99.90
57108;DHT22;42987;52.916;6.542;2022-09-30T06:41:44;6.70;99.90
57108;DHT22;42987;52.916;6.542;2022-09-30T06:44:11;6.60;99.90
57108;DHT22;42987;52.916;6.542;2022-09-30T06:46:37;6.70;99.90
57108;DHT22;42987;52.916;6.542;2022-09-30T06:49:03;6.70;99.90
57108;DHT22;42987;52.916;6.542;2022-09-30T06:51:30;6.70;99.90
57108;DHT22;42987;52.916;6.542;2022-09-30T06:54:01;6.80;99.90
57108;DHT22;42987;52.916;6.542;2022-09-30T06:56:27;6.80;99.90
57108;DHT22;42987;52.916;6.542;2022-09-30T06:58:53;6.90;99.90
57108;DHT22;42987;52.916;6.542;2022-09-30T07:01:22;7.00;99.90
57108;DHT22;42987;52.916;6.542;2022-09-30T07:03:49;7.10;99.90
57108;DHT22;42987;52.916;6.542;2022-09-30T07:06:21;7.20;99.90
57108;DHT22;42987;52.916;6.542;2022-09-30T07:08:46;7.30;99.90
57108;DHT22;42987;52.916;6.542;2022-09-30T07:11:12;7.30;99.90
57108;DHT22;42987;52.916;6.542;2022-09-30T07:13:46;7.40;99.90
57108;DHT22;42987;52.916;6.542;2022-09-30T07:16:12;7.50;99.90
57108;DHT22;42987;52.916;6.542;2022-09-30T07:18:38;7.60;99.90
57108;DHT22;42987;52.916;6.542;2022-09-30T07:21:07;7.60;99.90
57108;DHT22;42987;52.916;6.542;2022-09-30T07:23:33;7.70;99.90
57108;DHT22;42987;52.916;6.542;2022-09-30T07:26:01;7.80;99.90
57108;DHT22;42987;52.916;6.542;2022-09-30T07:28:34;7.90;99.90
57108;DHT22;42987;52.916;6.542;2022-09-30T07:31:05;8.00;99.90
57108;DHT22;42987;52.916;6.542;2022-09-30T07:33:32;8.10;99.90
57108;DHT22;42987;52.916;6.542;2022-09-30T07:35:59;8.20;99.90
57108;DHT22;42987;52.916;6.542;2022-09-30T07:38:27;8.30;99.90
57108;DHT22;42987;52.916;6.542;2022-09-30T07:40:56;8.40;99.90
57108;DHT22;42987;52.916;6.542;2022-09-30T07:43:27;8.50;99.90
57108;DHT22;42987;52.916;6.542;2022-09-30T07:48:38;8.60;99.90
57108;DHT22;42987;52.916;6.542;2022-09-30T07:51:18;8.70;99.90
57108;DHT22;42987;52.916;6.542;2022-09-30T07:53:52;8.80;99.90
57108;DHT22;42987;52.916;6.542;2022-09-30T07:56:18;8.80;99.90
57108;DHT22;42987;52.916;6.542;2022-09-30T07:58:45;8.90;99.90
57108;DHT22;42987;52.916;6.542;2022-09-30T08:01:11;9.00;99.90
57108;DHT22;42987;52.916;6.542;2022-09-30T08:03:39;9.10;99.90
57108;DHT22;42987;52.916;6.542;2022-09-30T08:06:14;9.20;99.90
57108;DHT22;42987;52.916;6.542;2022-09-30T08:08:41;9.20;99.90
57108;DHT22;42987;52.916;6.542;2022-09-30T08:11:08;9.30;99.90
57108;DHT22;42987;52.916;6.542;2022-09-30T08:13:35;9.30;99.90
57108;DHT22;42987;52.916;6.542;2022-09-30T08:16:01;9.40;99.90
57108;DHT22;42987;52.916;6.542;2022-09-30T08:18:27;9.50;99.90
57108;DHT22;42987;52.916;6.542;2022-09-30T08:20:53;9.60;99.90
57108;DHT22;42987;52.916;6.542;2022-09-30T08:23:19;9.70;99.90
57108;DHT22;42987;52.916;6.542;2022-09-30T08:25:45;9.80;99.90
57108;DHT22;42987;52.916;6.542;2022-09-30T08:28:11;9.80;99.90
57108;DHT22;42987;52.916;6.542;2022-09-30T08:30:37;9.90;99.90
57108;DHT22;42987;52.916;6.542;2022-09-30T08:33:04;10.00;99.90
57108;DHT22;42987;52.916;6.542;2022-09-30T08:35:30;10.10;99.90
57108;DHT22;42987;52.916;6.542;2022-09-30T08:37:56;10.20;99.90
57108;DHT22;42987;52.916;6.542;2022-09-30T08:40:25;10.30;99.90
57108;DHT22;42987;52.916;6.542;2022-09-30T08:42:55;10.50;99.90
57108;DHT22;42987;52.916;6.542;2022-09-30T08:53:32;10.90;99.90
57108;DHT22;42987;52.916;6.542;2022-09-30T08:55:59;11.20;99.90
57108;DHT22;42987;52.916;6.542;2022-09-30T08:58:36;11.40;99.90
57108;DHT22;42987;52.916;6.542;2022-09-30T09:01:16;11.70;99.90
57108;DHT22;42987;52.916;6.542;2022-09-30T09:03:44;12.00;99.90
57108;DHT22;42987;52.916;6.542;2022-09-30T09:06:22;12.30;99.90
57108;DHT22;42987;52.916;6.542;2022-09-30T09:09:02;12.50;99.90
57108;DHT22;42987;52.916;6.542;2022-09-30T09:16:43;13.00;99.90
57108;DHT22;42987;52.916;6.542;2022-09-30T09:19:22;13.10;99.90
57108;DHT22;42987;52.916;6.542;2022-09-30T09:21:54;13.30;99.90
57108;DHT22;42987;52.916;6.542;2022-09-30T09:24:27;13.50;99.90
57108;DHT22;42987;52.916;6.542;2022-09-30T09:26:57;13.60;99.90
57108;DHT22;42987;52.916;6.542;2022-09-30T09:32:19;13.90;99.90
57108;DHT22;42987;52.916;6.542;2022-09-30T09:34:50;13.90;99.90
57108;DHT22;42987;52.916;6.542;2022-09-30T09:48:30;14.40;99.90
57108;DHT22;42987;52.916;6.542;2022-09-30T09:51:20;14.40;99.90
57108;DHT22;42987;52.916;6.542;2022-09-30T09:53:53;14.50;99.90
57108;DHT22;42987;52.916;6.542;2022-09-30T09:56:27;14.60;99.90
57108;DHT22;42987;52.916;6.542;2022-09-30T09:59:16;14.70;99.90
57108;DHT22;42987;52.916;6.542;2022-09-30T10:01:45;14.80;99.90
57108;DHT22;42987;52.916;6.542;2022-09-30T10:04:28;14.80;99.90
57108;DHT22;42987;52.916;6.542;2022-09-30T10:07:11;14.90;99.90
57108;DHT22;42987;52.916;6.542;2022-09-30T10:09:39;15.00;99.90
57108;DHT22;42987;52.916;6.542;2022-09-30T10:14:37;14.90;99.90
57108;DHT22;42987;52.916;6.542;2022-09-30T10:17:30;14.90;99.90
57108;DHT22;42987;52.916;6.542;2022-09-30T10:20:29;14.90;99.90
57108;DHT22;42987;52.916;6.542;2022-09-30T10:23:18;14.90;99.90
57108;DHT22;42987;52.916;6.542;2022-09-30T10:26:03;15.00;99.90
57108;DHT22;42987;52.916;6.542;2022-09-30T10:28:34;15.00;99.90
57108;DHT22;42987;52.916;6.542;2022-09-30T10:31:24;15.10;99.90
57108;DHT22;42987;52.916;6.542;2022-09-30T10:36:56;15.20;99.90
57108;DHT22;42987;52.916;6.542;2022-09-30T10:39:23;15.40;99.90
57108;DHT22;42987;52.916;6.542;2022-09-30T10:42:20;15.40;99.90
57108;DHT22;42987;52.916;6.542;2022-09-30T10:44:54;15.50;99.90
57108;DHT22;42987;52.916;6.542;2022-09-30T10:47:25;15.60;99.90
57108;DHT22;42987;52.916;6.542;2022-09-30T10:50:05;15.70;99.90
57108;DHT22;42987;52.916;6.542;2022-09-30T10:52:35;15.70;99.90
57108;DHT22;42987;52.916;6.542;2022-09-30T10:55:08;15.70;99.90
57108;DHT22;42987;52.916;6.542;2022-09-30T10:57:35;15.70;99.90
57108;DHT22;42987;52.916;6.542;2022-09-30T11:03:02;15.80;99.90
57108;DHT22;42987;52.916;6.542;2022-09-30T11:05:39;15.90;99.90
57108;DHT22;42987;52.916;6.542;2022-09-30T11:08:18;16.00;99.90
57108;DHT22;42987;52.916;6.542;2022-09-30T11:11:15;16.00;99.90
57108;DHT22;42987;52.916;6.542;2022-09-30T11:13:48;15.90;99.90
57108;DHT22;42987;52.916;6.542;2022-09-30T11:16:32;15.80;99.90
57108;DHT22;42987;52.916;6.542;2022-09-30T11:24:40;15.60;99.90
57108;DHT22;42987;52.916;6.542;2022-09-30T11:30:09;15.70;99.90
57108;DHT22;42987;52.916;6.542;2022-09-30T11:32:48;15.90;99.90
57108;DHT22;42987;52.916;6.542;2022-09-30T11:35:32;16.10;99.90
57108;DHT22;42987;52.916;6.542;2022-09-30T11:57:07;16.90;99.90
57108;DHT22;42987;52.916;6.542;2022-09-30T12:02:49;16.80;99.90
57108;DHT22;42987;52.916;6.542;2022-09-30T12:05:19;16.70;99.90
57108;DHT22;42987;52.916;6.542;2022-09-30T12:08:09;16.70;99.90
57108;DHT22;42987;52.916;6.542;2022-09-30T12:10:43;16.90;99.90
57108;DHT22;42987;52.916;6.542;2022-09-30T12:13:16;16.70;99.90
57108;DHT22;42987;52.916;6.542;2022-09-30T12:15:44;16.60;99.90
57108;DHT22;42987;52.916;6.542;2022-09-30T12:18:31;16.40;99.90
57108;DHT22;42987;52.916;6.542;2022-09-30T12:23:47;16.20;99.90
57108;DHT22;42987;52.916;6.542;2022-09-30T12:26:14;16.10;99.90
57108;DHT22;42987;52.916;6.542;2022-09-30T12:29:02;16.20;99.90
57108;DHT22;42987;52.916;6.542;2022-09-30T12:32:18;16.40;99.90
57108;DHT22;42987;52.916;6.542;2022-09-30T12:43:11;16.00;99.90
57108;DHT22;42987;52.916;6.542;2022-09-30T12:48:38;16.20;99.90
57108;DHT22;42987;52.916;6.542;2022-09-30T12:51:06;16.30;99.90
57108;DHT22;42987;52.916;6.542;2022-09-30T12:53:35;16.40;99.90
57108;DHT22;42987;52.916;6.542;2022-09-30T12:56:10;16.40;99.90
57108;DHT22;42987;52.916;6.542;2022-09-30T12:58:44;16.40;99.90
57108;DHT22;42987;52.916;6.542;2022-09-30T13:11:39;16.20;99.90
57108;DHT22;42987;52.916;6.542;2022-09-30T13:19:39;16.10;99.90
57108;DHT22;42987;52.916;6.542;2022-09-30T13:43:40;16.10;99.90
57108;DHT22;42987;52.916;6.542;2022-09-30T13:46:37;16.20;99.90
57108;DHT22;42987;52.916;6.542;2022-09-30T13:52:19;16.20;99.90
57108;DHT22;42987;52.916;6.542;2022-09-30T13:54:47;16.20;99.90
57108;DHT22;42987;52.916;6.542;2022-09-30T13:57:22;16.20;99.90
57108;DHT22;42987;52.916;6.542;2022-09-30T13:59:52;16.40;99.90
57108;DHT22;42987;52.916;6.542;2022-09-30T14:11:10;16.30;99.90
57108;DHT22;42987;52.916;6.542;2022-09-30T14:19:02;16.50;99.90
57108;DHT22;42987;52.916;6.542;2022-09-30T14:21:42;16.50;99.90
57108;DHT22;42987;52.916;6.542;2022-09-30T14:24:12;16.50;99.90
57108;DHT22;42987;52.916;6.542;2022-09-30T14:32:44;16.30;99.90
57108;DHT22;42987;52.916;6.542;2022-09-30T14:35:12;16.30;99.90
57108;DHT22;42987;52.916;6.542;2022-09-30T14:38:21;16.20;99.90
57108;DHT22;42987;52.916;6.542;2022-09-30T14:40:52;16.20;99.90
57108;DHT22;42987;52.916;6.542;2022-09-30T14:43:28;16.20;99.90
57108;DHT22;42987;52.916;6.542;2022-09-30T14:46:09;16.20;99.90
57108;DHT22;42987;52.916;6.542;2022-09-30T14:48:38;16.20;99.90
57108;DHT22;42987;52.916;6.542;2022-09-30T14:51:11;16.10;99.90
57108;DHT22;42987;52.916;6.542;2022-09-30T14:53:54;16.10;99.90
57108;DHT22;42987;52.916;6.542;2022-09-30T14:56:25;16.10;99.90
57108;DHT22;42987;52.916;6.542;2022-09-30T14:58:52;16.00;99.90
57108;DHT22;42987;52.916;6.542;2022-09-30T15:01:19;16.00;99.90
57108;DHT22;42987;52.916;6.542;2022-09-30T15:06:30;16.10;99.90
57108;DHT22;42987;52.916;6.542;2022-09-30T15:09:16;16.10;99.90
57108;DHT22;42987;52.916;6.542;2022-09-30T15:11:43;16.10;99.90
57108;DHT22;42987;52.916;6.542;2022-09-30T15:14:19;16.20;99.90
57108;DHT22;42987;52.916;6.542;2022-09-30T15:16:56;16.20;99.90
57108;DHT22;42987;52.916;6.542;2022-09-30T15:19:33;16.20;99.90
57108;DHT22;42987;52.916;6.542;2022-09-30T15:22:02;16.20;99.90
57108;DHT22;42987;52.916;6.542;2022-09-30T15:24:30;16.10;99.90
57108;DHT22;42987;52.916;6.542;2022-09-30T15:26:59;16.20;99.90
57108;DHT22;42987;52.916;6.542;2022-09-30T15:29:25;16.10;99.90
57108;DHT22;42987;52.916;6.542;2022-09-30T15:31:59;16.00;99.90
57108;DHT22;42987;52.916;6.542;2022-09-30T15:34:26;16.00;99.90
57108;DHT22;42987;52.916;6.542;2022-09-30T15:37:01;15.80;99.90
57108;DHT22;42987;52.916;6.542;2022-09-30T15:39:41;15.80;99.90
57108;DHT22;42987;52.916;6.542;2022-09-30T15:42:39;15.60;99.90
57108;DHT22;42987;52.916;6.542;2022-09-30T15:48:00;15.50;99.90
57108;DHT22;42987;52.916;6.542;2022-09-30T15:50:40;15.40;99.90
57108;DHT22;42987;52.916;6.542;2022-09-30T15:55:47;15.30;99.90
57108;DHT22;42987;52.916;6.542;2022-09-30T15:58:36;15.30;99.90
57108;DHT22;42987;52.916;6.542;2022-09-30T16:03:58;15.30;99.90
57108;DHT22;42987;52.916;6.542;2022-09-30T16:06:33;15.30;99.90
57108;DHT22;42987;52.916;6.542;2022-09-30T16:09:05;15.30;99.90
57108;DHT22;42987;52.916;6.542;2022-09-30T16:11:36;15.20;99.90
57108;DHT22;42987;52.916;6.542;2022-09-30T16:14:07;15.20;99.90
57108;DHT22;42987;52.916;6.542;2022-09-30T16:16:35;15.20;99.90
57108;DHT22;42987;52.916;6.542;2022-09-30T16:19:03;15.20;99.90
57108;DHT22;42987;52.916;6.542;2022-09-30T16:21:43;15.10;99.90
57108;DHT22;42987;52.916;6.542;2022-09-30T16:26:54;15.00;99.90
57108;DHT22;42987;52.916;6.542;2022-09-30T16:29:21;15.00;99.90
57108;DHT22;42987;52.916;6.542;2022-09-30T16:31:49;14.90;99.90
57108;DHT22;42987;52.916;6.542;2022-09-30T16:34:36;14.80;99.90
57108;DHT22;42987;52.916;6.542;2022-09-30T16:37:08;14.80;99.90
57108;DHT22;42987;52.916;6.542;2022-09-30T16:39:35;14.70;99.90
57108;DHT22;42987;52.916;6.542;2022-09-30T16:42:01;14.70;99.90
57108;DHT22;42987;52.916;6.542;2022-09-30T16:44:32;14.60;99.90
57108;DHT22;42987;52.916;6.542;2022-09-30T16:47:02;14.60;99.90
57108;DHT22;42987;52.916;6.542;2022-09-30T16:49:28;14.70;99.90
57108;DHT22;42987;52.916;6.542;2022-09-30T16:51:54;14.60;99.90
57108;DHT22;42987;52.916;6.542;2022-09-30T16:54:20;14.60;99.90
57108;DHT22;42987;52.916;6.542;2022-09-30T16:56:46;14.50;99.90
57108;DHT22;42987;52.916;6.542;2022-09-30T16:59:13;14.50;99.90
57108;DHT22;42987;52.916;6.542;2022-09-30T17:01:40;14.50;99.90
57108;DHT22;42987;52.916;6.542;2022-09-30T17:04:07;14.40;99.90
57108;DHT22;42987;52.916;6.542;2022-09-30T17:06:34;14.40;99.90
57108;DHT22;42987;52.916;6.542;2022-09-30T17:09:01;14.40;99.90
57108;DHT22;42987;52.916;6.542;2022-09-30T17:11:35;14.30;99.90
57108;DHT22;42987;52.916;6.542;2022-09-30T17:14:02;14.30;99.90
57108;DHT22;42987;52.916;6.542;2022-09-30T17:16:32;14.20;99.90
57108;DHT22;42987;52.916;6.542;2022-09-30T17:19:01;14.10;99.90
57108;DHT22;42987;52.916;6.542;2022-09-30T17:21:26;14.10;99.90
57108;DHT22;42987;52.916;6.542;2022-09-30T17:23:53;14.00;99.90
57108;DHT22;42987;52.916;6.542;2022-09-30T17:26:20;13.90;99.90
57108;DHT22;42987;52.916;6.542;2022-09-30T17:28:46;13.90;99.90
57108;DHT22;42987;52.916;6.542;2022-09-30T17:31:14;13.80;99.90
57108;DHT22;42987;52.916;6.542;2022-09-30T17:33:40;13.80;99.90
57108;DHT22;42987;52.916;6.542;2022-09-30T17:36:10;13.70;99.90
57108;DHT22;42987;52.916;6.542;2022-09-30T17:38:37;13.60;99.90
57108;DHT22;42987;52.916;6.542;2022-09-30T17:41:03;13.60;99.90
57108;DHT22;42987;52.916;6.542;2022-09-30T17:43:48;13.50;99.90
57108;DHT22;42987;52.916;6.542;2022-09-30T17:46:15;13.40;99.90
57108;DHT22;42987;52.916;6.542;2022-09-30T17:48:46;13.40;99.90
57108;DHT22;42987;52.916;6.542;2022-09-30T17:51:13;13.30;99.90
57108;DHT22;42987;52.916;6.542;2022-09-30T17:53:43;13.30;99.90
57108;DHT22;42987;52.916;6.542;2022-09-30T17:56:17;13.20;99.90
57108;DHT22;42987;52.916;6.542;2022-09-30T17:58:45;13.20;99.90
57108;DHT22;42987;52.916;6.542;2022-09-30T18:01:13;13.10;99.90
57108;DHT22;42987;52.916;6.542;2022-09-30T18:03:40;13.10;99.90
57108;DHT22;42987;52.916;6.542;2022-09-30T18:06:06;13.10;99.90
57108;DHT22;42987;52.916;6.542;2022-09-30T18:08:32;13.00;99.90
57108;DHT22;42987;52.916;6.542;2022-09-30T18:10:59;13.00;99.90
57108;DHT22;42987;52.916;6.542;2022-09-30T18:13:26;13.00;99.90
57108;DHT22;42987;52.916;6.542;2022-09-30T18:15:55;12.90;99.90
57108;DHT22;42987;52.916;6.542;2022-09-30T18:18:27;12.90;99.90
57108;DHT22;42987;52.916;6.542;2022-09-30T18:20:53;12.90;99.90
57108;DHT22;42987;52.916;6.542;2022-09-30T18:23:19;12.80;99.90
57108;DHT22;42987;52.916;6.542;2022-09-30T18:25:45;12.80;99.90
57108;DHT22;42987;52.916;6.542;2022-09-30T18:28:13;12.80;99.90
57108;DHT22;42987;52.916;6.542;2022-09-30T18:30:39;12.70;99.90
57108;DHT22;42987;52.916;6.542;2022-09-30T18:33:09;12.60;99.90
57108;DHT22;42987;52.916;6.542;2022-09-30T18:35:37;12.70;99.90
57108;DHT22;42987;52.916;6.542;2022-09-30T18:38:04;12.60;99.90
57108;DHT22;42987;52.916;6.542;2022-09-30T18:40:30;12.60;99.90
57108;DHT22;42987;52.916;6.542;2022-09-30T18:42:58;12.60;99.90
57108;DHT22;42987;52.916;6.542;2022-09-30T18:45:29;12.50;99.90
57108;DHT22;42987;52.916;6.542;2022-09-30T18:47:57;12.50;99.90
57108;DHT22;42987;52.916;6.542;2022-09-30T18:50:26;12.50;99.90
57108;DHT22;42987;52.916;6.542;2022-09-30T18:52:53;12.50;99.90
57108;DHT22;42987;52.916;6.542;2022-09-30T18:55:20;12.50;99.90
57108;DHT22;42987;52.916;6.542;2022-09-30T18:57:47;12.50;99.90
57108;DHT22;42987;52.916;6.542;2022-09-30T19:00:13;12.50;99.90
57108;DHT22;42987;52.916;6.542;2022-09-30T19:02:41;12.40;99.90
57108;DHT22;42987;52.916;6.542;2022-09-30T19:05:09;12.40;99.90
57108;DHT22;42987;52.916;6.542;2022-09-30T19:07:35;12.50;99.90
57108;DHT22;42987;52.916;6.542;2022-09-30T19:10:01;12.40;99.90
57108;DHT22;42987;52.916;6.542;2022-09-30T19:12:34;12.40;99.90
57108;DHT22;42987;52.916;6.542;2022-09-30T19:15:05;12.50;99.90
57108;DHT22;42987;52.916;6.542;2022-09-30T19:17:31;12.40;99.90
57108;DHT22;42987;52.916;6.542;2022-09-30T19:19:58;12.50;99.90
57108;DHT22;42987;52.916;6.542;2022-09-30T19:22:26;12.50;99.90
57108;DHT22;42987;52.916;6.542;2022-09-30T19:24:52;12.40;99.90